Mg Kronos — 3EXU9 — position and weather

sailwx.info

Track history (hours):
 
Tides and Currents Weather Stations Pressure Air Temp Water Temp Dewpoint Dewpoint Depression Visibility Wind Speed Wind Dir Waves Ship Positions

Mg Kronos

Last reported at 2018-Jan-26 19:57 UTC. Time now 2018-Feb-23 06:38 UTC.
Position N 01°16' E 103°59'.
Warning: this ship's position is 27 days out of date.

Length 228 m; draft 13.6 m.

Type: Cargo ship. MMSI: 371207000.

Date/timePositionNaut miles runAvg speedWind from/ knotsBaromVisibWave heightAir tempDewpointWater temp
2018-Jan-26 19:57N 01°16' E 103°59'3 5.1
2018-Jan-26 19:26N 01°15' E 103°57'5 8.3
2018-Jan-26 18:53N 01°12' E 103°53'410.6
2018-Jan-26 18:29N 01°11' E 103°49'510.7
2018-Jan-26 18:00N 01°07' E 103°45'610.7
2018-Jan-26 17:29N 01°04' E 103°40'5 9.2
2018-Jan-26 16:57N 01°05' E 103°36'511.8
2018-Jan-26 16:30N 01°08' E 103°31'711.5
2018-Jan-26 15:54N 01°12' E 103°25'  
Track history (hours):
 
Tides and Currents Weather Stations Pressure Air Temp Water Temp Dewpoint Dewpoint Depression Visibility Wind Speed Wind Dir Waves Ship Positions

Mg Kronos

Last reported at 2018-Jan-26 19:57 UTC. Time now 2018-Feb-23 06:38 UTC.
Position N 01°16' E 103°59'.
Warning: this ship's position is 27 days out of date.

Length 228 m; draft 13.6 m.

Type: Cargo ship. MMSI: 371207000.

Date/timePositionNaut miles runAvg speedWind from/ knotsBaromVisibWave heightAir tempDewpointWater temp
2018-Jan-26 19:57N 01°16' E 103°59'3 5.1
2018-Jan-26 19:26N 01°15' E 103°57'5 8.3
2018-Jan-26 18:53N 01°12' E 103°53'410.6
2018-Jan-26 18:29N 01°11' E 103°49'510.7
2018-Jan-26 18:00N 01°07' E 103°45'610.7
2018-Jan-26 17:29N 01°04' E 103°40'5 9.2
2018-Jan-26 16:57N 01°05' E 103°36'511.8
2018-Jan-26 16:30N 01°08' E 103°31'711.5
2018-Jan-26 15:54N 01°12' E 103°25'  

Dump ship's entire track history